This is the latest recevied weather packets stored in our database for station/object OE3FJB-25. If no packets are shown the sender has not sent any weather packets the latest 10 day(s).
| Time | Temp. | Humidity | Pressure | Rain* | Wind** | Luminosity | Snow |
|---|---|---|---|---|---|---|---|
| 1777699935 | 12.22° C | 99% | 1027.7 hPa | - | - | - | - |
| 1777699336 | 11.67° C | 99% | 1027.8 hPa | - | - | - | - |
| 1777698737 | 11.67° C | 99% | 1027.7 hPa | - | - | - | - |
| 1777698139 | 11.67° C | 99% | 1027.8 hPa | - | - | - | - |
| 1777697540 | 11.67° C | 99% | 1027.7 hPa | - | - | - | - |
| 1777696941 | 11.67° C | 99% | 1027.6 hPa | - | - | - | - |
| 1777696343 | 11.67° C | 99% | 1027.6 hPa | - | - | - | - |
| 1777695744 | 11.67° C | 99% | 1027.6 hPa | - | - | - | - |
| 1777695145 | 11.11° C | 99% | 1027.6 hPa | - | - | - | - |
| 1777694547 | 10.56° C | 99% | 1027.5 hPa | - | - | - | - |
| 1777693948 | 10.56° C | 99% | 1027.5 hPa | - | - | - | - |
| 1777693349 | 10.56° C | 99% | 1027.5 hPa | - | - | - | - |
| 1777692748 | 10.56° C | 99% | 1027.6 hPa | - | - | - | - |
| 1777692145 | 10.56° C | 99% | 1027.6 hPa | - | - | - | - |
| 1777691546 | 11.11° C | 99% | 1027.6 hPa | - | - | - | - |
| 1777690948 | 11.11° C | 99% | 1027.6 hPa | - | - | - | - |
| 1777690347 | 10.56° C | 99% | 1027.7 hPa | - | - | - | - |
| 1777689746 | 10.56° C | 99% | 1027.7 hPa | - | - | - | - |
| 1777689148 | 11.11° C | 99% | 1027.7 hPa | - | - | - | - |
| 1777688545 | 11.11° C | 99% | 1027.7 hPa | - | - | - | - |
| 1777674161 | 12.22° C | 89% | 1028.8 hPa | - | - | - | - |
| 1777673562 | 12.22° C | 90% | 1028.9 hPa | - | - | - | - |
| 1777672963 | 12.22° C | 91% | 1029 hPa | - | - | - | - |
| 1777671766 | 11.67° C | 93% | 1028.9 hPa | - | - | - | - |
| 1777671167 | 11.67° C | 92% | 1029 hPa | - | - | - | - |
* Rain since midnight (hover to see other rain measurements)
** Current wind speed in m/s (hover to see current wind gust speed)